Observations for ST. NAZAIRE MONTOIR, France (LFRZ)

LFRZ 230530Z AUTO 22011KT 190V250 4700 -DZ BR OVC004 11/11 Q1023 TEMPO 2500 -RADZ   
LFRZ 230500Z AUTO 20011KT 5000 DZ BR OVC004 11/11 Q1023 TEMPO 2500 -RADZ
LFRZ 230430Z AUTO 20010KT 5000 -DZ BR OVC004 11/10 Q1023 TEMPO 2500 -RADZ   
LFRZ 230400Z AUTO 19010KT 9000 BKN005 BKN013 BKN043 11/10 Q1023 TEMPO 2500 -RADZ
LFRZ 230330Z AUTO 17007KT 9999 OVC006 10/10 Q1024 TEMPO 2500 -RADZ OVC003   
LFRZ 230300Z AUTO 17006KT 9999 FEW003 BKN008 OVC088 09/09 Q1024 TEMPO 2500 -RADZ OVC003 
LFRZ 230230Z AUTO 18007KT CAVOK 09/09 Q1024 TEMPO 2500 -RADZ OVC003 
LFRZ 230200Z AUTO 18008KT CAVOK 09/09 Q1024 TEMPO 2500 -RADZ OVC003 
LFRZ 230130Z AUTO 20006KT 9999 SCT011 08/08 Q1025 TEMPO 2500 -RADZ OVC003   
LFRZ 230100Z AUTO 21006KT 8000 FEW011 08/08 Q1025 TEMPO 2500 -RADZ VV///
LFRZ 230030Z AUTO 20006KT 7000 NSC 08/08 Q1025 TEMPO 2500 -RADZ VV///   
LFRZ 230000Z AUTO 20005KT 3400 0700 R25/P2000 BCFG NSC 06/06 Q1025 TEMPO 0400 FG VV///  
LFRZ 222330Z AUTO 19003KT 5000 0900 R25/P2000 BCFG NSC 07/07 Q1025 TEMPO 2800 BR BKN007 
LFRZ 222300Z AUTO VRB03KT 3300 BR NSC 07/06 Q1025 TEMPO 2800 BR BKN007  
LFRZ 222230Z AUTO 24005KT 1600 BR NSC 06/06 Q1025 TEMPO BKN007  
LFRZ 222200Z AUTO 25004KT 3100 1000 R25/0900U BR NSC 07/07 Q1025 TEMPO 2800 BR BKN007   
LFRZ 222130Z AUTO 24004KT 5000 BR NSC 07/07 Q1025 TEMPO 2800 BR BKN007  
LFRZ 222100Z AUTO 24005KT 5000 BR NSC 08/08 Q1025 NOSIG 
LFRZ 222030Z AUTO 25006KT 7000 NSC 07/06 Q1025 NOSIG
LFRZ 222000Z AUTO 25005KT CAVOK 08/07 Q1025 NOSIG   
LFRZ 221930Z AUTO 25005KT CAVOK 08/07 Q1025 NOSIG   
LFRZ 221900Z AUTO 25005KT CAVOK 08/06 Q1024 NOSIG   
LFRZ 221830Z AUTO 28005KT 250V320 CAVOK 10/08 Q1024 NOSIG   
LFRZ 221800Z AUTO 27007KT 9999 FEW036 10/08 Q1024 NOSIG 
LFRZ 221730Z AUTO 27008KT CAVOK 10/08 Q1023 NOSIG   
LFRZ 221700Z AUTO 27009KT 9999 FEW034 11/08 Q1023 NOSIG 
LFRZ 221630Z AUTO 27009KT 9999 OVC033 12/08 Q1022 NOSIG 
LFRZ 221600Z AUTO 28010KT 250V310 9999 BKN035 12/08 Q1022 NOSIG 
LFRZ 221530Z AUTO 27011KT 240V310 9999 SCT037 12/09 Q1021 NOSIG 
LFRZ 221500Z AUTO 28010KT 9999 OVC037 13/08 Q1021 NOSIG 
LFRZ 221430Z AUTO 29011KT 260V320 9999 BKN036 13/08 Q1021 NOSIG 
LFRZ 221400Z AUTO 29012KT 9999 OVC032 13/08 Q1020 NOSIG 
LFRZ 221330Z AUTO 29012KT 260V320 9999 OVC031 13/08 Q1020 NOSIG 
LFRZ 221300Z AUTO 30015KT 270V330 9999 BKN033 13/07 Q1020 TEMPO 28015G30KT  
LFRZ 221230Z AUTO 30012KT 260V320 9999 OVC032 13/08 Q1019 TEMPO 28015G30KT  
LFRZ 221200Z AUTO 30016KT 270V340 9999 SCT029 OVC036 13/07 Q1019 BECMG 28015G30KT   
LFRZ 221130Z AUTO 29015KT 9999 BKN027 OVC035 12/08 Q1018 BECMG 28015G30KT   
LFRZ 221100Z AUTO 28018KT 9999 BKN026 OVC037 12/09 Q1018 BECMG 29018G30KT   
LFRZ 221030Z AUTO 28022G33KT 9999 BKN028 BKN033 12/09 Q1017 NOSIG   
LFRZ 221000Z AUTO 28023G36KT 9999 SCT018 SCT024 13/09 Q1016 NOSIG   
LFRZ 220930Z AUTO 27020G34KT 9999 BKN017 BKN023 OVC032 13/10 Q1015 TEMPO 28025G44KT 
LFRZ 220900Z AUTO 26022KT 9999 BKN015 OVC028 13/11 Q1015 BECMG 28025G44KT   
LFRZ 220830Z AUTO 25023G34KT 9999 BKN012 OVC018 13/11 Q1015 BECMG 28025G44KT BKN016 
LFRZ 220800Z AUTO 25025G39KT 9999 OVC009 13/12 Q1015 BECMG BKN016   
LFRZ 220730Z AUTO 25022KT 9000 OVC005 13/12 Q1015 BECMG 28025G44KT BKN016   
LFRZ 220700Z AUTO 24022KT 7000 -RA OVC005 12/12 Q1015 BECMG 28025G44KT BKN016   
LFRZ 220630Z AUTO 24020KT 4200 -RA BR OVC005 12/11 Q1015 BECMG 28025G44KT 9999 NSW BKN016   
LFRZ 220600Z AUTO 24021KT 5000 BR OVC007 12/11 Q1016 BECMG 28025G44KT BKN013
LFRZ 220530Z AUTO 24021KT 9999 OVC008 12/11 Q1016 BECMG 28025G44KT BKN013   
LFRZ 220500Z AUTO 24018KT 9999 OVC006 12/11 Q1016 TEMPO 2500 -DZRA BECMG 28025G44KT BKN013